sensor_id;sensor_type;location;lat;lon;timestamp;pressure;altitude;pressure_sealevel;temperature;humidity
40708;BME280;26392;42.696;23.350;2023-02-25T00:02:23;94701.28;;;6.30;100.00
40708;BME280;26392;42.696;23.350;2023-02-25T00:04:48;94698.84;;;6.28;100.00
40708;BME280;26392;42.696;23.350;2023-02-25T00:07:14;94696.31;;;6.22;100.00
40708;BME280;26392;42.696;23.350;2023-02-25T00:09:39;94703.34;;;6.23;100.00
40708;BME280;26392;42.696;23.350;2023-02-25T00:12:05;94696.63;;;6.25;100.00
40708;BME280;26392;42.696;23.350;2023-02-25T00:14:31;94699.34;;;6.25;100.00
40708;BME280;26392;42.696;23.350;2023-02-25T00:16:56;94701.88;;;6.32;100.00
40708;BME280;26392;42.696;23.350;2023-02-25T00:19:23;94686.81;;;6.36;100.00
40708;BME280;26392;42.696;23.350;2023-02-25T00:21:49;94708.94;;;6.33;100.00
40708;BME280;26392;42.696;23.350;2023-02-25T00:24:14;94703.75;;;6.32;100.00
40708;BME280;26392;42.696;23.350;2023-02-25T00:26:40;94701.06;;;6.32;100.00
40708;BME280;26392;42.696;23.350;2023-02-25T00:29:05;94687.03;;;6.35;100.00
40708;BME280;26392;42.696;23.350;2023-02-25T00:31:31;94693.16;;;6.30;100.00
40708;BME280;26392;42.696;23.350;2023-02-25T00:33:57;94680.31;;;6.20;100.00
40708;BME280;26392;42.696;23.350;2023-02-25T00:36:25;94684.91;;;6.20;100.00
40708;BME280;26392;42.696;23.350;2023-02-25T00:38:53;94685.31;;;6.28;100.00
40708;BME280;26392;42.696;23.350;2023-02-25T00:41:21;94669.72;;;6.19;100.00
40708;BME280;26392;42.696;23.350;2023-02-25T00:43:49;94668.34;;;6.16;100.00
40708;BME280;26392;42.696;23.350;2023-02-25T00:46:15;94650.63;;;6.09;100.00
40708;BME280;26392;42.696;23.350;2023-02-25T00:48:40;94668.50;;;6.26;100.00
40708;BME280;26392;42.696;23.350;2023-02-25T00:51:13;94663.84;;;6.22;100.00
40708;BME280;26392;42.696;23.350;2023-02-25T00:53:39;94665.88;;;6.15;100.00
40708;BME280;26392;42.696;23.350;2023-02-25T00:56:07;94651.03;;;6.17;100.00
40708;BME280;26392;42.696;23.350;2023-02-25T00:58:36;94664.97;;;6.26;100.00
40708;BME280;26392;42.696;23.350;2023-02-25T01:01:04;94651.34;;;6.21;100.00
40708;BME280;26392;42.696;23.350;2023-02-25T01:03:31;94649.41;;;6.16;100.00
40708;BME280;26392;42.696;23.350;2023-02-25T01:05:57;94644.91;;;6.22;100.00
40708;BME280;26392;42.696;23.350;2023-02-25T01:08:22;94633.47;;;6.03;100.00
40708;BME280;26392;42.696;23.350;2023-02-25T01:10:48;94630.78;;;6.03;100.00
40708;BME280;26392;42.696;23.350;2023-02-25T01:13:14;94629.13;;;6.02;100.00
40708;BME280;26392;42.696;23.350;2023-02-25T01:15:40;94620.59;;;6.10;100.00
40708;BME280;26392;42.696;23.350;2023-02-25T01:18:06;94627.16;;;5.97;100.00
40708;BME280;26392;42.696;23.350;2023-02-25T01:20:35;94630.44;;;5.99;100.00
40708;BME280;26392;42.696;23.350;2023-02-25T01:23:01;94626.19;;;6.03;100.00
40708;BME280;26392;42.696;23.350;2023-02-25T01:25:27;94631.25;;;6.00;100.00
40708;BME280;26392;42.696;23.350;2023-02-25T01:27:55;94632.25;;;5.94;100.00
40708;BME280;26392;42.696;23.350;2023-02-25T01:30:20;94626.56;;;5.95;100.00
40708;BME280;26392;42.696;23.350;2023-02-25T01:32:46;94605.31;;;5.87;100.00
40708;BME280;26392;42.696;23.350;2023-02-25T01:35:11;94616.56;;;5.96;100.00
40708;BME280;26392;42.696;23.350;2023-02-25T01:37:37;94617.16;;;5.98;100.00
40708;BME280;26392;42.696;23.350;2023-02-25T01:40:03;94617.19;;;5.86;100.00
40708;BME280;26392;42.696;23.350;2023-02-25T01:42:29;94626.94;;;5.87;100.00
40708;BME280;26392;42.696;23.350;2023-02-25T01:45:30;94618.59;;;5.89;100.00
40708;BME280;26392;42.696;23.350;2023-02-25T01:48:00;94624.50;;;5.86;100.00
40708;BME280;26392;42.696;23.350;2023-02-25T01:50:33;94632.34;;;5.87;100.00
40708;BME280;26392;42.696;23.350;2023-02-25T01:53:01;94611.88;;;5.91;100.00
40708;BME280;26392;42.696;23.350;2023-02-25T01:55:28;94621.84;;;5.91;100.00
40708;BME280;26392;42.696;23.350;2023-02-25T01:57:56;94626.44;;;5.90;100.00
40708;BME280;26392;42.696;23.350;2023-02-25T02:00:22;94620.94;;;5.97;100.00
40708;BME280;26392;42.696;23.350;2023-02-25T02:02:48;94599.78;;;5.94;100.00
40708;BME280;26392;42.696;23.350;2023-02-25T02:05:14;94620.59;;;5.93;100.00
40708;BME280;26392;42.696;23.350;2023-02-25T02:07:40;94619.72;;;5.93;100.00
40708;BME280;26392;42.696;23.350;2023-02-25T02:10:06;94624.44;;;5.97;100.00
40708;BME280;26392;42.696;23.350;2023-02-25T02:12:35;94609.75;;;5.93;100.00
40708;BME280;26392;42.696;23.350;2023-02-25T02:15:06;94609.13;;;6.03;100.00
40708;BME280;26392;42.696;23.350;2023-02-25T02:17:37;94606.66;;;6.01;100.00
40708;BME280;26392;42.696;23.350;2023-02-25T02:20:25;94606.94;;;6.00;100.00
40708;BME280;26392;42.696;23.350;2023-02-25T02:36:57;94584.25;;;5.89;100.00
40708;BME280;26392;42.696;23.350;2023-02-25T02:47:40;94574.94;;;5.68;100.00
40708;BME280;26392;42.696;23.350;2023-02-25T02:50:20;94573.09;;;5.69;100.00
40708;BME280;26392;42.696;23.350;2023-02-25T02:52:51;94568.63;;;5.63;100.00
40708;BME280;26392;42.696;23.350;2023-02-25T02:55:26;94559.88;;;5.55;100.00
40708;BME280;26392;42.696;23.350;2023-02-25T02:58:02;94549.69;;;5.46;100.00
40708;BME280;26392;42.696;23.350;2023-02-25T03:00:35;94543.28;;;5.35;100.00
40708;BME280;26392;42.696;23.350;2023-02-25T03:03:09;94550.66;;;5.39;100.00
40708;BME280;26392;42.696;23.350;2023-02-25T03:05:38;94556.91;;;5.28;100.00
40708;BME280;26392;42.696;23.350;2023-02-25T03:08:21;94553.41;;;5.28;100.00
40708;BME280;26392;42.696;23.350;2023-02-25T03:10:50;94560.75;;;5.15;100.00
40708;BME280;26392;42.696;23.350;2023-02-25T03:13:15;94561.19;;;5.12;100.00
40708;BME280;26392;42.696;23.350;2023-02-25T03:15:42;94549.25;;;5.08;100.00
40708;BME280;26392;42.696;23.350;2023-02-25T03:18:34;94556.28;;;5.09;100.00
40708;BME280;26392;42.696;23.350;2023-02-25T03:21:02;94550.19;;;5.02;100.00
40708;BME280;26392;42.696;23.350;2023-02-25T03:23:33;94555.72;;;5.07;100.00
40708;BME280;26392;42.696;23.350;2023-02-25T03:26:23;94572.84;;;5.13;100.00
40708;BME280;26392;42.696;23.350;2023-02-25T03:28:51;94578.31;;;5.18;100.00
40708;BME280;26392;42.696;23.350;2023-02-25T03:31:23;94547.69;;;5.12;100.00
40708;BME280;26392;42.696;23.350;2023-02-25T03:34:00;94537.00;;;4.77;100.00
40708;BME280;26392;42.696;23.350;2023-02-25T03:36:32;94561.03;;;4.79;100.00
40708;BME280;26392;42.696;23.350;2023-02-25T03:39:03;94549.66;;;4.88;100.00
40708;BME280;26392;42.696;23.350;2023-02-25T03:41:34;94559.41;;;4.78;100.00
40708;BME280;26392;42.696;23.350;2023-02-25T03:44:05;94565.72;;;4.83;100.00
40708;BME280;26392;42.696;23.350;2023-02-25T03:46:33;94566.53;;;4.84;100.00
40708;BME280;26392;42.696;23.350;2023-02-25T03:49:02;94558.34;;;4.79;100.00
40708;BME280;26392;42.696;23.350;2023-02-25T03:51:32;94548.28;;;4.74;100.00
40708;BME280;26392;42.696;23.350;2023-02-25T03:53:58;94537.97;;;4.71;100.00
40708;BME280;26392;42.696;23.350;2023-02-25T03:56:24;94531.47;;;4.84;100.00
40708;BME280;26392;42.696;23.350;2023-02-25T03:58:49;94542.97;;;4.91;100.00
40708;BME280;26392;42.696;23.350;2023-02-25T04:01:17;94533.13;;;4.85;100.00
40708;BME280;26392;42.696;23.350;2023-02-25T04:03:45;94550.25;;;4.90;100.00
40708;BME280;26392;42.696;23.350;2023-02-25T04:06:12;94536.75;;;4.79;100.00
40708;BME280;26392;42.696;23.350;2023-02-25T04:08:38;94536.09;;;4.60;100.00
40708;BME280;26392;42.696;23.350;2023-02-25T04:11:03;94562.34;;;4.64;100.00
40708;BME280;26392;42.696;23.350;2023-02-25T04:13:29;94555.91;;;4.65;100.00
40708;BME280;26392;42.696;23.350;2023-02-25T04:15:54;94554.63;;;4.56;100.00
40708;BME280;26392;42.696;23.350;2023-02-25T04:18:20;94551.09;;;4.56;100.00
40708;BME280;26392;42.696;23.350;2023-02-25T04:20:45;94552.16;;;4.66;100.00
40708;BME280;26392;42.696;23.350;2023-02-25T04:23:12;94556.72;;;4.66;100.00
40708;BME280;26392;42.696;23.350;2023-02-25T04:25:38;94566.56;;;4.72;100.00
40708;BME280;26392;42.696;23.350;2023-02-25T04:28:04;94562.22;;;4.83;100.00
40708;BME280;26392;42.696;23.350;2023-02-25T04:30:29;94538.88;;;4.77;100.00
40708;BME280;26392;42.696;23.350;2023-02-25T04:32:55;94544.63;;;4.80;100.00
40708;BME280;26392;42.696;23.350;2023-02-25T04:35:20;94541.22;;;4.73;100.00
40708;BME280;26392;42.696;23.350;2023-02-25T04:37:45;94521.84;;;4.88;100.00
40708;BME280;26392;42.696;23.350;2023-02-25T04:40:14;94522.69;;;4.77;100.00
40708;BME280;26392;42.696;23.350;2023-02-25T04:42:40;94526.66;;;4.86;100.00
40708;BME280;26392;42.696;23.350;2023-02-25T04:45:07;94519.75;;;4.78;100.00
40708;BME280;26392;42.696;23.350;2023-02-25T04:47:33;94496.91;;;4.69;100.00
40708;BME280;26392;42.696;23.350;2023-02-25T04:49:59;94506.72;;;4.75;100.00
40708;BME280;26392;42.696;23.350;2023-02-25T04:52:25;94504.00;;;4.87;100.00
40708;BME280;26392;42.696;23.350;2023-02-25T04:54:51;94492.16;;;4.88;100.00
40708;BME280;26392;42.696;23.350;2023-02-25T04:57:16;94494.41;;;4.79;100.00
40708;BME280;26392;42.696;23.350;2023-02-25T04:59:41;94491.94;;;4.78;100.00
40708;BME280;26392;42.696;23.350;2023-02-25T05:02:08;94495.44;;;4.78;100.00
40708;BME280;26392;42.696;23.350;2023-02-25T05:04:35;94506.13;;;4.85;100.00
40708;BME280;26392;42.696;23.350;2023-02-25T05:07:01;94471.59;;;4.87;100.00
40708;BME280;26392;42.696;23.350;2023-02-25T05:09:27;94490.31;;;4.77;100.00
40708;BME280;26392;42.696;23.350;2023-02-25T05:11:52;94482.47;;;4.63;100.00
40708;BME280;26392;42.696;23.350;2023-02-25T05:14:18;94458.22;;;4.52;100.00
40708;BME280;26392;42.696;23.350;2023-02-25T05:16:43;94454.13;;;4.49;100.00
40708;BME280;26392;42.696;23.350;2023-02-25T05:19:17;94491.41;;;4.52;100.00
40708;BME280;26392;42.696;23.350;2023-02-25T05:21:43;94498.81;;;4.57;100.00
40708;BME280;26392;42.696;23.350;2023-02-25T05:24:09;94503.72;;;4.48;100.00
40708;BME280;26392;42.696;23.350;2023-02-25T05:26:35;94492.22;;;4.53;100.00
40708;BME280;26392;42.696;23.350;2023-02-25T05:29:00;94504.56;;;4.48;100.00
40708;BME280;26392;42.696;23.350;2023-02-25T05:31:26;94514.63;;;4.53;100.00
40708;BME280;26392;42.696;23.350;2023-02-25T05:33:52;94487.66;;;4.53;100.00
40708;BME280;26392;42.696;23.350;2023-02-25T05:36:17;94494.63;;;4.37;100.00
40708;BME280;26392;42.696;23.350;2023-02-25T05:38:43;94514.91;;;4.40;100.00
40708;BME280;26392;42.696;23.350;2023-02-25T05:41:10;94520.03;;;4.53;100.00
40708;BME280;26392;42.696;23.350;2023-02-25T05:43:37;94527.75;;;4.61;100.00
40708;BME280;26392;42.696;23.350;2023-02-25T05:46:03;94531.50;;;4.72;100.00
40708;BME280;26392;42.696;23.350;2023-02-25T05:48:30;94514.94;;;4.80;100.00
40708;BME280;26392;42.696;23.350;2023-02-25T05:51:01;94547.19;;;4.87;100.00
40708;BME280;26392;42.696;23.350;2023-02-25T05:53:27;94556.63;;;5.01;100.00
40708;BME280;26392;42.696;23.350;2023-02-25T05:55:52;94536.22;;;5.05;100.00
40708;BME280;26392;42.696;23.350;2023-02-25T05:58:20;94551.47;;;5.11;100.00
40708;BME280;26392;42.696;23.350;2023-02-25T06:00:45;94554.91;;;5.35;100.00
40708;BME280;26392;42.696;23.350;2023-02-25T06:03:11;94540.03;;;5.50;100.00
40708;BME280;26392;42.696;23.350;2023-02-25T06:05:39;94536.44;;;5.15;100.00
40708;BME280;26392;42.696;23.350;2023-02-25T06:08:05;94548.28;;;5.43;100.00
40708;BME280;26392;42.696;23.350;2023-02-25T06:10:30;94551.88;;;5.60;100.00
40708;BME280;26392;42.696;23.350;2023-02-25T06:13:05;94524.84;;;5.60;100.00
40708;BME280;26392;42.696;23.350;2023-02-25T06:15:31;94541.81;;;5.73;100.00
40708;BME280;26392;42.696;23.350;2023-02-25T06:17:57;94551.94;;;5.94;100.00
40708;BME280;26392;42.696;23.350;2023-02-25T06:20:22;94552.75;;;6.12;100.00
40708;BME280;26392;42.696;23.350;2023-02-25T06:22:50;94558.97;;;6.29;100.00
40708;BME280;26392;42.696;23.350;2023-02-25T06:25:16;94554.25;;;6.36;100.00
40708;BME280;26392;42.696;23.350;2023-02-25T06:27:41;94542.09;;;6.56;100.00
40708;BME280;26392;42.696;23.350;2023-02-25T06:30:09;94535.47;;;6.68;100.00
40708;BME280;26392;42.696;23.350;2023-02-25T06:32:34;94544.25;;;6.76;100.00
40708;BME280;26392;42.696;23.350;2023-02-25T06:34:59;94545.44;;;6.85;100.00
40708;BME280;26392;42.696;23.350;2023-02-25T06:37:43;94550.34;;;6.88;100.00
40708;BME280;26392;42.696;23.350;2023-02-25T06:40:10;94556.59;;;6.88;100.00
40708;BME280;26392;42.696;23.350;2023-02-25T06:42:37;94554.03;;;6.99;100.00
40708;BME280;26392;42.696;23.350;2023-02-25T06:45:03;94544.53;;;7.18;100.00
40708;BME280;26392;42.696;23.350;2023-02-25T06:47:29;94541.81;;;7.18;100.00
40708;BME280;26392;42.696;23.350;2023-02-25T06:49:54;94530.63;;;7.36;100.00
40708;BME280;26392;42.696;23.350;2023-02-25T06:52:21;94530.06;;;7.61;100.00
40708;BME280;26392;42.696;23.350;2023-02-25T06:54:47;94538.50;;;7.92;100.00
40708;BME280;26392;42.696;23.350;2023-02-25T06:57:12;94527.00;;;8.12;100.00
40708;BME280;26392;42.696;23.350;2023-02-25T06:59:37;94527.00;;;8.39;100.00
40708;BME280;26392;42.696;23.350;2023-02-25T07:02:03;94501.50;;;8.45;100.00
40708;BME280;26392;42.696;23.350;2023-02-25T07:04:28;94497.81;;;8.62;100.00
40708;BME280;26392;42.696;23.350;2023-02-25T07:06:54;94498.22;;;8.86;100.00
40708;BME280;26392;42.696;23.350;2023-02-25T07:09:20;94492.09;;;9.11;100.00
40708;BME280;26392;42.696;23.350;2023-02-25T07:11:45;94487.00;;;9.35;100.00
40708;BME280;26392;42.696;23.350;2023-02-25T07:14:10;94485.97;;;9.56;100.00
40708;BME280;26392;42.696;23.350;2023-02-25T07:16:38;94477.59;;;9.78;100.00
40708;BME280;26392;42.696;23.350;2023-02-25T07:19:03;94475.66;;;9.74;100.00
40708;BME280;26392;42.696;23.350;2023-02-25T07:21:29;94477.31;;;9.70;100.00
40708;BME280;26392;42.696;23.350;2023-02-25T07:23:56;94470.75;;;9.55;100.00
40708;BME280;26392;42.696;23.350;2023-02-25T07:26:22;94477.81;;;9.72;100.00
40708;BME280;26392;42.696;23.350;2023-02-25T07:28:53;94480.31;;;9.94;100.00
40708;BME280;26392;42.696;23.350;2023-02-25T07:31:18;94458.25;;;10.11;100.00
40708;BME280;26392;42.696;23.350;2023-02-25T07:33:46;94444.91;;;10.19;100.00
40708;BME280;26392;42.696;23.350;2023-02-25T07:36:11;94433.78;;;10.21;100.00
40708;BME280;26392;42.696;23.350;2023-02-25T07:38:38;94439.22;;;10.21;100.00
40708;BME280;26392;42.696;23.350;2023-02-25T07:41:06;94436.22;;;10.38;100.00
40708;BME280;26392;42.696;23.350;2023-02-25T07:43:32;94435.94;;;10.44;100.00
40708;BME280;26392;42.696;23.350;2023-02-25T07:45:57;94414.34;;;10.68;100.00
40708;BME280;26392;42.696;23.350;2023-02-25T07:48:23;94416.81;;;10.70;100.00
40708;BME280;26392;42.696;23.350;2023-02-25T07:50:49;94412.13;;;10.81;100.00
40708;BME280;26392;42.696;23.350;2023-02-25T07:53:14;94407.69;;;10.95;100.00
40708;BME280;26392;42.696;23.350;2023-02-25T07:55:43;94411.47;;;11.09;100.00
40708;BME280;26392;42.696;23.350;2023-02-25T07:58:10;94402.97;;;11.16;100.00
40708;BME280;26392;42.696;23.350;2023-02-25T08:00:37;94409.53;;;11.15;97.71
40708;BME280;26392;42.696;23.350;2023-02-25T08:03:04;94408.38;;;11.26;96.98
40708;BME280;26392;42.696;23.350;2023-02-25T08:05:34;94404.81;;;11.26;95.08
40708;BME280;26392;42.696;23.350;2023-02-25T08:07:59;94399.94;;;11.23;95.40
40708;BME280;26392;42.696;23.350;2023-02-25T08:10:25;94391.72;;;11.33;95.72
40708;BME280;26392;42.696;23.350;2023-02-25T08:12:50;94401.59;;;11.24;94.98
40708;BME280;26392;42.696;23.350;2023-02-25T08:15:16;94404.00;;;11.30;92.80
40708;BME280;26392;42.696;23.350;2023-02-25T08:17:41;94394.41;;;11.38;92.81
40708;BME280;26392;42.696;23.350;2023-02-25T08:20:07;94387.81;;;11.44;91.54
40708;BME280;26392;42.696;23.350;2023-02-25T08:22:35;94391.59;;;11.48;90.36
40708;BME280;26392;42.696;23.350;2023-02-25T08:25:01;94392.03;;;11.65;88.94
40708;BME280;26392;42.696;23.350;2023-02-25T08:27:26;94396.63;;;11.70;87.80
40708;BME280;26392;42.696;23.350;2023-02-25T08:29:52;94388.94;;;11.77;87.04
40708;BME280;26392;42.696;23.350;2023-02-25T08:32:18;94391.66;;;11.82;86.69
40708;BME280;26392;42.696;23.350;2023-02-25T08:34:43;94386.84;;;11.64;87.43
40708;BME280;26392;42.696;23.350;2023-02-25T08:37:10;94392.31;;;11.64;88.40
40708;BME280;26392;42.696;23.350;2023-02-25T08:39:36;94384.44;;;11.62;88.21
40708;BME280;26392;42.696;23.350;2023-02-25T08:42:02;94383.53;;;11.72;88.66
40708;BME280;26392;42.696;23.350;2023-02-25T08:44:28;94371.31;;;11.64;88.53
40708;BME280;26392;42.696;23.350;2023-02-25T08:46:53;94368.88;;;11.24;91.10
40708;BME280;26392;42.696;23.350;2023-02-25T08:49:18;94352.47;;;11.29;92.18
40708;BME280;26392;42.696;23.350;2023-02-25T08:51:44;94359.19;;;11.41;91.87
40708;BME280;26392;42.696;23.350;2023-02-25T08:54:12;94360.69;;;11.63;91.20
40708;BME280;26392;42.696;23.350;2023-02-25T08:56:38;94338.75;;;11.73;90.07
40708;BME280;26392;42.696;23.350;2023-02-25T08:59:11;94346.44;;;11.71;91.56
40708;BME280;26392;42.696;23.350;2023-02-25T09:01:38;94357.31;;;11.76;91.75
40708;BME280;26392;42.696;23.350;2023-02-25T09:04:16;94344.69;;;11.51;93.93
40708;BME280;26392;42.696;23.350;2023-02-25T09:06:43;94350.91;;;11.57;94.52
40708;BME280;26392;42.696;23.350;2023-02-25T09:09:11;94376.78;;;11.59;94.96
40708;BME280;26392;42.696;23.350;2023-02-25T09:11:37;94365.72;;;11.46;95.67
40708;BME280;26392;42.696;23.350;2023-02-25T09:14:02;94348.19;;;11.57;96.33
40708;BME280;26392;42.696;23.350;2023-02-25T09:16:29;94346.72;;;11.70;96.21
40708;BME280;26392;42.696;23.350;2023-02-25T09:18:54;94336.00;;;11.78;94.76
40708;BME280;26392;42.696;23.350;2023-02-25T09:21:20;94339.28;;;11.75;94.85
40708;BME280;26392;42.696;23.350;2023-02-25T09:23:46;94347.66;;;11.89;94.49
40708;BME280;26392;42.696;23.350;2023-02-25T09:26:11;94340.66;;;12.07;93.73
40708;BME280;26392;42.696;23.350;2023-02-25T09:28:37;94339.81;;;12.12;91.77
40708;BME280;26392;42.696;23.350;2023-02-25T09:31:03;94337.88;;;11.83;92.79
40708;BME280;26392;42.696;23.350;2023-02-25T09:33:33;94349.91;;;11.42;96.11
40708;BME280;26392;42.696;23.350;2023-02-25T09:36:14;94328.41;;;10.96;100.00
40708;BME280;26392;42.696;23.350;2023-02-25T09:38:41;94323.13;;;11.15;100.00
40708;BME280;26392;42.696;23.350;2023-02-25T09:41:21;94301.94;;;11.02;100.00
40708;BME280;26392;42.696;23.350;2023-02-25T09:44:03;94303.69;;;11.27;99.60
40708;BME280;26392;42.696;23.350;2023-02-25T09:46:37;94293.94;;;11.50;97.86
40708;BME280;26392;42.696;23.350;2023-02-25T09:51:37;94271.47;;;11.63;93.29
40708;BME280;26392;42.696;23.350;2023-02-25T09:56:37;94290.53;;;11.69;93.58
40708;BME280;26392;42.696;23.350;2023-02-25T09:59:11;94280.00;;;11.57;94.66
40708;BME280;26392;42.696;23.350;2023-02-25T10:01:42;94278.53;;;11.64;93.81
40708;BME280;26392;42.696;23.350;2023-02-25T10:06:52;94281.59;;;11.92;89.87
40708;BME280;26392;42.696;23.350;2023-02-25T10:12:42;94274.88;;;12.08;88.51
40708;BME280;26392;42.696;23.350;2023-02-25T10:26:00;94237.72;;;12.56;84.63
40708;BME280;26392;42.696;23.350;2023-02-25T10:28:30;94222.50;;;12.68;79.58
40708;BME280;26392;42.696;23.350;2023-02-25T10:31:06;94220.94;;;12.62;78.57
40708;BME280;26392;42.696;23.350;2023-02-25T10:33:35;94209.34;;;12.51;79.68
40708;BME280;26392;42.696;23.350;2023-02-25T10:38:52;94216.78;;;12.46;74.25
40708;BME280;26392;42.696;23.350;2023-02-25T10:41:21;94210.38;;;12.56;74.23
40708;BME280;26392;42.696;23.350;2023-02-25T10:43:49;94188.06;;;12.48;71.44
40708;BME280;26392;42.696;23.350;2023-02-25T10:46:18;94194.06;;;12.50;71.30
40708;BME280;26392;42.696;23.350;2023-02-25T10:48:57;94201.38;;;12.55;70.26
40708;BME280;26392;42.696;23.350;2023-02-25T10:51:23;94196.19;;;12.53;70.45
40708;BME280;26392;42.696;23.350;2023-02-25T10:56:21;94185.72;;;12.61;68.46
40708;BME280;26392;42.696;23.350;2023-02-25T11:01:45;94182.16;;;12.79;66.89
40708;BME280;26392;42.696;23.350;2023-02-25T11:04:18;94171.16;;;12.84;64.94
40708;BME280;26392;42.696;23.350;2023-02-25T11:06:44;94157.34;;;12.94;64.27
40708;BME280;26392;42.696;23.350;2023-02-25T11:14:26;94185.59;;;13.41;61.84
40708;BME280;26392;42.696;23.350;2023-02-25T11:17:03;94160.28;;;13.63;59.72
40708;BME280;26392;42.696;23.350;2023-02-25T11:19:31;94146.69;;;13.86;58.99
40708;BME280;26392;42.696;23.350;2023-02-25T11:22:50;94158.06;;;14.07;56.16
40708;BME280;26392;42.696;23.350;2023-02-25T11:25:02;94155.13;;;14.17;56.09
40708;BME280;26392;42.696;23.350;2023-02-25T11:27:37;94122.56;;;14.16;54.57
40708;BME280;26392;42.696;23.350;2023-02-25T11:32:42;94146.75;;;14.50;53.96
40708;BME280;26392;42.696;23.350;2023-02-25T11:35:17;94136.34;;;14.74;52.80
40708;BME280;26392;42.696;23.350;2023-02-25T11:37:45;94123.78;;;14.96;51.02
40708;BME280;26392;42.696;23.350;2023-02-25T11:45:38;94123.47;;;14.97;50.54
40708;BME280;26392;42.696;23.350;2023-02-25T11:48:18;94124.72;;;15.14;49.81
40708;BME280;26392;42.696;23.350;2023-02-25T11:53:57;94118.69;;;15.65;47.88
40708;BME280;26392;42.696;23.350;2023-02-25T11:56:30;94129.34;;;15.89;47.77
40708;BME280;26392;42.696;23.350;2023-02-25T12:09:49;94142.06;;;16.25;44.74
40708;BME280;26392;42.696;23.350;2023-02-25T12:34:28;94119.53;;;17.07;42.35
40708;BME280;26392;42.696;23.350;2023-02-25T12:53:14;94080.91;;;17.97;40.07
40708;BME280;26392;42.696;23.350;2023-02-25T12:56:05;94065.34;;;18.01;39.65
40708;BME280;26392;42.696;23.350;2023-02-25T13:09:42;94083.53;;;18.23;39.34
40708;BME280;26392;42.696;23.350;2023-02-25T13:14:58;94076.81;;;18.33;38.79
40708;BME280;26392;42.696;23.350;2023-02-25T13:17:41;94082.41;;;18.45;38.75
40708;BME280;26392;42.696;23.350;2023-02-25T13:25:57;94049.06;;;18.08;38.31
40708;BME280;26392;42.696;23.350;2023-02-25T13:42:33;94041.69;;;17.62;38.50
40708;BME280;26392;42.696;23.350;2023-02-25T13:56:22;94034.59;;;17.43;38.72
40708;BME280;26392;42.696;23.350;2023-02-25T14:15:50;93987.66;;;16.93;39.98
40708;BME280;26392;42.696;23.350;2023-02-25T14:18:26;94004.81;;;16.90;40.17
40708;BME280;26392;42.696;23.350;2023-02-25T14:21:21;94009.16;;;16.91;40.04
40708;BME280;26392;42.696;23.350;2023-02-25T14:23:56;94016.63;;;16.90;40.17
40708;BME280;26392;42.696;23.350;2023-02-25T14:35:11;94019.94;;;17.22;39.33
40708;BME280;26392;42.696;23.350;2023-02-25T14:38:08;94035.97;;;17.29;39.34
40708;BME280;26392;42.696;23.350;2023-02-25T14:43:32;94023.53;;;17.22;39.54
40708;BME280;26392;42.696;23.350;2023-02-25T14:57:48;94028.06;;;17.10;40.14
40708;BME280;26392;42.696;23.350;2023-02-25T15:06:49;94039.38;;;17.08;40.22
40708;BME280;26392;42.696;23.350;2023-02-25T15:09:37;94061.75;;;17.07;40.43
40708;BME280;26392;42.696;23.350;2023-02-25T15:12:38;94058.50;;;17.05;40.48
40708;BME280;26392;42.696;23.350;2023-02-25T15:20:43;94055.78;;;16.78;41.24
40708;BME280;26392;42.696;23.350;2023-02-25T15:23:10;94061.28;;;16.70;41.69
40708;BME280;26392;42.696;23.350;2023-02-25T15:26:25;94055.28;;;16.68;41.64
40708;BME280;26392;42.696;23.350;2023-02-25T15:33:40;94073.53;;;16.38;42.55
40708;BME280;26392;42.696;23.350;2023-02-25T15:38:48;94065.13;;;16.34;43.07
40708;BME280;26392;42.696;23.350;2023-02-25T15:43:52;94067.53;;;16.27;42.89
40708;BME280;26392;42.696;23.350;2023-02-25T15:46:36;94049.59;;;16.21;43.16
40708;BME280;26392;42.696;23.350;2023-02-25T15:54:08;94066.88;;;16.21;43.00
40708;BME280;26392;42.696;23.350;2023-02-25T15:56:50;94052.16;;;16.08;43.17
40708;BME280;26392;42.696;23.350;2023-02-25T15:59:56;94078.84;;;16.08;43.38
40708;BME280;26392;42.696;23.350;2023-02-25T16:05:17;94082.03;;;16.10;43.53
40708;BME280;26392;42.696;23.350;2023-02-25T16:07:46;94082.38;;;16.00;44.13
40708;BME280;26392;42.696;23.350;2023-02-25T16:12:46;94047.44;;;15.92;44.04
40708;BME280;26392;42.696;23.350;2023-02-25T16:15:18;94058.44;;;15.92;43.95
40708;BME280;26392;42.696;23.350;2023-02-25T16:17:45;94059.38;;;15.87;44.22
40708;BME280;26392;42.696;23.350;2023-02-25T16:20:32;94064.88;;;15.87;44.16
40708;BME280;26392;42.696;23.350;2023-02-25T16:23:09;94074.75;;;15.88;44.20
40708;BME280;26392;42.696;23.350;2023-02-25T16:28:34;94069.06;;;15.84;44.19
40708;BME280;26392;42.696;23.350;2023-02-25T16:33:50;94074.66;;;15.71;44.91
40708;BME280;26392;42.696;23.350;2023-02-25T16:38:45;94072.00;;;15.57;44.97
40708;BME280;26392;42.696;23.350;2023-02-25T16:41:12;94084.28;;;15.59;45.02
40708;BME280;26392;42.696;23.350;2023-02-25T16:43:39;94085.88;;;15.52;45.33
40708;BME280;26392;42.696;23.350;2023-02-25T16:46:09;94085.88;;;15.52;45.16
40708;BME280;26392;42.696;23.350;2023-02-25T16:48:44;94099.91;;;15.50;45.34
40708;BME280;26392;42.696;23.350;2023-02-25T16:51:15;94089.69;;;15.42;45.21
40708;BME280;26392;42.696;23.350;2023-02-25T16:53:45;94101.28;;;15.39;45.49
40708;BME280;26392;42.696;23.350;2023-02-25T16:56:14;94102.78;;;15.45;45.47
40708;BME280;26392;42.696;23.350;2023-02-25T16:58:57;94104.13;;;15.56;45.29
40708;BME280;26392;42.696;23.350;2023-02-25T17:01:23;94088.28;;;15.53;45.10
40708;BME280;26392;42.696;23.350;2023-02-25T17:03:49;94102.69;;;15.59;45.30
40708;BME280;26392;42.696;23.350;2023-02-25T17:06:17;94106.88;;;15.56;45.21